Time;durP1;ratioP1;P1;durP2;ratioP2;P2;SDS_P1;SDS_P2;PMS_P1;PMS_P2;Temp;Humidity;BMP_temperature;BMP_pressure;BME280_temperature;BME280_humidity;BME280_pressure;Samples;Min_cycle;Max_cycle;Signal;HPM_P1;HPM_P2
2022/06/10 00:01:19;;;;;;;4.38;3.03;;;11.00;99.90;;;;;;4803969;29;20131;-66
2022/06/10 00:03:45;;;;;;;8.40;3.47;;;10.90;99.90;;;;;;4804897;29;20058;-68
2022/06/10 00:06:13;;;;;;;6.32;2.95;;;10.90;99.90;;;;;;4805914;29;20055;-67
2022/06/10 00:08:42;;;;;;;7.32;3.35;;;10.90;99.90;;;;;;4788669;29;20393;-66
2022/06/10 00:11:10;;;;;;;8.60;3.20;;;10.90;99.90;;;;;;4805495;29;20622;-68
2022/06/10 00:13:38;;;;;;;5.22;3.55;;;10.80;99.90;;;;;;4803752;29;20396;-67
2022/06/10 00:16:05;;;;;;;8.57;3.13;;;10.90;99.90;;;;;;4789062;29;20660;-66
2022/06/10 00:18:32;;;;;;;8.52;3.55;;;10.90;99.90;;;;;;4805929;29;20047;-67
2022/06/10 00:21:00;;;;;;;6.90;3.60;;;10.90;99.90;;;;;;4805001;29;20058;-67
2022/06/10 00:23:26;;;;;;;5.45;3.33;;;10.90;99.90;;;;;;4804121;29;20130;-68
2022/06/10 00:25:52;;;;;;;5.45;3.92;;;10.90;99.90;;;;;;4787471;29;20051;-68
2022/06/10 00:28:18;;;;;;;5.78;3.20;;;10.90;99.90;;;;;;4805165;29;20039;-67
2022/06/10 00:30:44;;;;;;;6.03;3.45;;;10.90;99.90;;;;;;4788860;29;20568;-67
2022/06/10 00:33:10;;;;;;;6.85;3.60;;;10.80;99.90;;;;;;4788761;29;20442;-68
2022/06/10 00:35:36;;;;;;;7.55;3.40;;;10.80;99.90;;;;;;4788032;29;20111;-68
2022/06/10 00:38:03;;;;;;;7.80;4.05;;;10.80;99.90;;;;;;4806711;29;20413;-67
2022/06/10 00:40:36;;;;;;;6.20;3.63;;;10.80;99.90;;;;;;4793165;29;20438;-67
2022/06/10 00:43:01;;;;;;;10.00;4.68;;;10.80;99.90;;;;;;4792430;29;20058;-68
2022/06/10 00:46:01;;;;;;;11.90;4.70;;;10.80;99.90;;;;;;4809130;29;20073;-67
2022/06/10 00:48:47;;;;;;;5.05;4.22;;;10.80;99.90;;;;;;4791138;29;20100;-67
2022/06/10 00:51:35;;;;;;;3.90;3.47;;;10.80;99.90;;;;;;4792629;29;20058;-67
2022/06/10 00:54:31;;;;;;;11.15;4.30;;;10.80;99.90;;;;;;4775927;29;20059;-67
2022/06/10 00:57:04;;;;;;;7.55;4.38;;;10.80;99.90;;;;;;4808168;29;20523;-67
2022/06/10 00:59:40;;;;;;;9.48;4.72;;;10.80;99.90;;;;;;4808907;29;20054;-67
2022/06/10 01:02:13;;;;;;;5.45;3.80;;;10.80;99.90;;;;;;4791180;29;20121;-68
2022/06/10 01:04:40;;;;;;;7.07;4.50;;;10.70;99.90;;;;;;4806229;29;20055;-66
2022/06/10 01:07:07;;;;;;;9.10;4.47;;;10.70;99.90;;;;;;4791335;29;20055;-68
2022/06/10 01:09:34;;;;;;;8.93;4.57;;;10.70;99.90;;;;;;4805820;29;20061;-66
2022/06/10 01:12:27;;;;;;;7.05;4.05;;;10.70;99.90;;;;;;4791839;29;20175;-67
2022/06/10 01:15:09;;;;;;;7.13;4.47;;;10.70;99.90;;;;;;4790789;29;20104;-67
2022/06/10 01:18:12;;;;;;;7.05;4.20;;;10.60;99.90;;;;;;4790242;30;20419;-68
2022/06/10 01:20:44;;;;;;;;;;;10.70;99.90;;;;;;4790699;30;20548;-67
2022/06/10 01:23:50;;;;;;;6.88;3.95;;;10.60;99.90;;;;;;4788783;29;19944;-66
2022/06/10 01:29:51;;;;;;;8.95;4.07;;;10.60;99.90;;;;;;4802626;29;20050;-66
2022/06/10 01:32:33;;;;;;;7.65;4.88;;;10.60;99.90;;;;;;4791576;29;20050;-68
2022/06/10 01:35:14;;;;;;;7.50;4.32;;;10.60;99.90;;;;;;4804157;29;20116;-68
2022/06/10 01:37:52;;;;;;;7.57;4.22;;;10.60;99.90;;;;;;4808174;29;20097;-67
2022/06/10 01:40:34;;;;;;;13.02;4.90;;;10.60;99.90;;;;;;4807011;29;20120;-68
2022/06/10 01:43:35;;;;;;;7.03;3.92;;;10.50;99.90;;;;;;4808053;29;20065;-68
2022/06/10 01:46:13;;;;;;;6.05;4.20;;;10.50;99.90;;;;;;4753596;30;20163;-68
2022/06/10 01:49:04;;;;;;;5.72;3.90;;;10.50;99.90;;;;;;4795835;29;20426;-68
2022/06/10 01:51:58;;;;;;;7.05;4.20;;;10.50;99.90;;;;;;4804862;29;20127;-66
2022/06/10 01:54:31;;;;;;;10.73;4.57;;;10.50;99.90;;;;;;4806902;29;20365;-67
2022/06/10 01:57:01;;;;;;;8.98;4.07;;;10.50;99.90;;;;;;4806915;29;20055;-66
2022/06/10 02:00:10;;;;;;;8.98;4.28;;;10.50;99.90;;;;;;4808255;29;20058;-67
2022/06/10 02:02:41;;;;;;;7.50;3.85;;;10.50;99.90;;;;;;4798986;29;20058;-68
2022/06/10 02:05:19;;;;;;;11.00;4.22;;;10.40;99.90;;;;;;4806378;29;20074;-66
2022/06/10 02:08:06;;;;;;;7.82;4.10;;;10.40;99.90;;;;;;4805566;29;20388;-67
2022/06/10 02:10:38;;;;;;;10.63;3.90;;;10.40;99.90;;;;;;4804268;29;20062;-68
2022/06/10 02:13:06;;;;;;;;;;;10.40;99.90;;;;;;4807576;29;20519;-67
2022/06/10 02:15:40;;;;;;;6.50;3.58;;;10.40;99.90;;;;;;4791055;29;19925;-67
2022/06/10 02:18:44;;;;;;;8.13;4.00;;;10.30;99.90;;;;;;4789726;29;20061;-68
2022/06/10 02:21:22;;;;;;;6.78;3.55;;;10.40;99.90;;;;;;4781035;29;20059;-68
2022/06/10 02:23:55;;;;;;;7.57;3.85;;;10.30;99.90;;;;;;4807304;29;20058;-68
2022/06/10 02:26:22;;;;;;;5.32;3.35;;;10.30;99.90;;;;;;4805206;29;20050;-67
2022/06/10 02:28:53;;;;;;;8.45;4.22;;;10.30;99.90;;;;;;4807675;29;20047;-68
2022/06/10 02:31:33;;;;;;;6.32;3.90;;;10.30;99.90;;;;;;4806244;29;20051;-66
2022/06/10 02:34:00;;;;;;;7.97;3.90;;;10.30;99.90;;;;;;4790724;29;20065;-67
2022/06/10 02:36:29;;;;;;;8.80;3.72;;;10.30;99.90;;;;;;4789459;29;20066;-66
2022/06/10 02:39:06;;;;;;;6.70;3.55;;;10.30;99.90;;;;;;4805906;29;20070;-67
2022/06/10 02:41:45;;;;;;;8.57;3.50;;;10.20;99.90;;;;;;4807053;29;20171;-68
2022/06/10 02:44:19;;;;;;;6.70;3.75;;;10.30;99.90;;;;;;4806295;29;20490;-68
2022/06/10 02:47:09;;;;;;;9.93;3.95;;;10.30;99.90;;;;;;4806482;29;20059;-66
2022/06/10 02:49:35;;;;;;;6.90;3.50;;;10.20;99.90;;;;;;4807161;29;20447;-67
2022/06/10 02:52:01;;;;;;;7.57;4.15;;;10.20;99.90;;;;;;4805464;29;20197;-68
2022/06/10 02:54:31;;;;;;;10.82;4.45;;;10.20;99.90;;;;;;4790205;29;20105;-68
2022/06/10 02:57:01;;;;;;;8.93;3.50;;;10.20;99.90;;;;;;4788332;29;20227;-67
2022/06/10 03:02:30;;;;;;;6.35;4.07;;;10.20;99.90;;;;;;4804477;29;20512;-67
2022/06/10 03:05:10;;;;;;;7.88;3.67;;;10.20;99.90;;;;;;4806365;29;20508;-66
2022/06/10 03:08:29;;;;;;;6.88;3.85;;;10.10;99.90;;;;;;4806085;29;20055;-67
2022/06/10 03:11:18;;;;;;;6.25;3.90;;;10.10;99.90;;;;;;4786108;29;20062;-68
2022/06/10 03:13:55;;;;;;;4.88;3.67;;;10.10;99.90;;;;;;4806704;29;20059;-67
2022/06/10 03:16:49;;;;;;;5.68;3.40;;;10.10;99.90;;;;;;4805240;29;20047;-67
2022/06/10 03:19:49;;;;;;;7.70;3.22;;;10.10;99.90;;;;;;4788495;29;20134;-67
2022/06/10 03:22:29;;;;;;;5.63;3.25;;;10.10;99.90;;;;;;4806373;29;20066;-67
2022/06/10 03:25:20;;;;;;;6.28;3.50;;;10.10;99.90;;;;;;4786935;29;20067;-67
2022/06/10 03:27:53;;;;;;;8.77;3.80;;;10.10;99.90;;;;;;4806533;29;20055;-65
2022/06/10 03:30:25;;;;;;;6.53;3.53;;;10.10;99.90;;;;;;4789825;29;20054;-66
2022/06/10 03:33:32;;;;;;;9.43;3.53;;;10.10;99.90;;;;;;4805358;29;20130;-65
2022/06/10 03:36:16;;;;;;;8.55;4.05;;;10.10;99.90;;;;;;4789134;29;20055;-66
2022/06/10 03:38:48;;;;;;;10.43;4.05;;;10.10;99.90;;;;;;4789832;29;20057;-67
2022/06/10 03:41:25;;;;;;;7.07;3.97;;;10.10;99.90;;;;;;4804879;29;20051;-67
2022/06/10 03:43:53;;;;;;;6.65;3.75;;;10.10;99.90;;;;;;4789884;29;20057;-67
2022/06/10 03:46:22;;;;;;;6.57;3.80;;;10.20;99.90;;;;;;4773676;29;20420;-66
2022/06/10 03:48:50;;;;;;;8.10;3.90;;;10.20;99.90;;;;;;4805976;29;20058;-66
2022/06/10 03:51:17;;;;;;;9.27;3.90;;;10.20;99.90;;;;;;4805006;29;20089;-67
2022/06/10 03:53:44;;;;;;;10.88;3.78;;;10.20;99.90;;;;;;4775159;29;20527;-66
2022/06/10 03:56:11;;;;;;;11.60;4.25;;;10.20;99.90;;;;;;4803754;29;20095;-67
2022/06/10 03:58:38;;;;;;;7.25;4.38;;;10.30;99.90;;;;;;4789749;29;20055;-67
2022/06/10 04:01:04;;;;;;;7.68;3.75;;;10.30;99.90;;;;;;4788913;29;20055;-66
2022/06/10 04:03:30;;;;;;;5.10;3.80;;;10.40;99.90;;;;;;4803744;29;20054;-67
2022/06/10 04:05:55;;;;;;;8.63;3.72;;;10.30;99.90;;;;;;4787693;29;20078;-68
2022/06/10 04:08:21;;;;;;;7.47;3.75;;;10.40;99.90;;;;;;4804745;29;20058;-67
2022/06/10 04:10:47;;;;;;;5.75;3.70;;;10.50;99.90;;;;;;4773825;29;20533;-68
2022/06/10 04:13:17;;;;;;;8.73;4.10;;;10.50;99.90;;;;;;4809145;29;20153;-67
2022/06/10 04:15:44;;;;;;;8.00;4.03;;;10.50;99.90;;;;;;4792605;29;20043;-68
2022/06/10 04:18:10;;;;;;;5.70;3.60;;;10.60;99.90;;;;;;4792657;29;20062;-67
2022/06/10 04:20:37;;;;;;;5.47;4.00;;;10.60;99.90;;;;;;4793489;29;20469;-66
2022/06/10 04:23:04;;;;;;;7.32;4.18;;;10.70;99.90;;;;;;4807910;29;20539;-68
2022/06/10 04:25:32;;;;;;;7.40;4.22;;;10.70;99.90;;;;;;4792749;29;20047;-67
2022/06/10 04:27:58;;;;;;;11.20;4.55;;;10.80;99.90;;;;;;4792938;29;20061;-65
2022/06/10 04:30:30;;;;;;;7.25;3.97;;;10.80;99.90;;;;;;4808882;29;20051;-67
2022/06/10 04:32:56;;;;;;;10.50;4.60;;;10.90;99.90;;;;;;4788392;29;20134;-67
2022/06/10 04:35:23;;;;;;;12.75;4.70;;;11.00;99.90;;;;;;4807341;29;20455;-67
2022/06/10 04:37:50;;;;;;;6.97;4.07;;;11.10;99.90;;;;;;4809179;29;20392;-67
2022/06/10 04:40:19;;;;;;;5.78;3.80;;;11.10;99.90;;;;;;4807581;29;20054;-67
2022/06/10 04:42:49;;;;;;;6.72;4.10;;;11.20;99.90;;;;;;4807129;29;20149;-66
2022/06/10 04:45:17;;;;;;;8.20;4.38;;;11.30;99.90;;;;;;4808063;29;20066;-66
2022/06/10 04:47:43;;;;;;;10.77;4.82;;;11.40;99.90;;;;;;4792259;29;20054;-67
2022/06/10 04:50:10;;;;;;;5.53;4.43;;;11.40;99.90;;;;;;4792583;29;20070;-66
2022/06/10 04:52:37;;;;;;;8.68;4.53;;;11.50;99.90;;;;;;4808893;29;20189;-68
2022/06/10 04:55:04;;;;;;;7.40;4.57;;;11.60;99.90;;;;;;4791347;29;20495;-68
2022/06/10 04:57:29;;;;;;;10.77;4.22;;;11.70;99.90;;;;;;4807758;29;20051;-67
2022/06/10 04:59:55;;;;;;;7.45;4.82;;;11.70;99.90;;;;;;4808747;29;20365;-66
2022/06/10 05:02:21;;;;;;;11.13;4.78;;;11.90;99.90;;;;;;4807070;29;20061;-66
2022/06/10 05:04:47;;;;;;;13.35;5.20;;;12.00;99.90;;;;;;4790860;29;20054;-67
2022/06/10 05:07:13;;;;;;;9.02;5.03;;;12.10;99.90;;;;;;4806927;29;20057;-67
2022/06/10 05:09:38;;;;;;;11.77;5.05;;;12.20;99.90;;;;;;4806875;29;20388;-67
2022/06/10 05:12:04;;;;;;;10.57;5.15;;;12.40;99.90;;;;;;4806310;29;20417;-67
2022/06/10 05:14:30;;;;;;;9.35;4.90;;;12.70;99.90;;;;;;4806806;29;20066;-66
2022/06/10 05:16:56;;;;;;;9.52;5.68;;;12.80;99.90;;;;;;4806103;29;20047;-67
2022/06/10 05:19:23;;;;;;;10.13;5.35;;;13.00;99.90;;;;;;4791130;29;20054;-66
2022/06/10 05:21:49;;;;;;;10.50;5.53;;;13.20;99.90;;;;;;4791402;29;20145;-67
2022/06/10 05:24:15;;;;;;;12.43;5.75;;;13.50;99.90;;;;;;4807811;29;20062;-67
2022/06/10 05:26:40;;;;;;;9.95;5.65;;;13.90;99.90;;;;;;4808364;29;20046;-66
2022/06/10 05:29:06;;;;;;;10.73;5.38;;;14.30;99.90;;;;;;4805912;29;20133;-66
2022/06/10 05:31:31;;;;;;;11.52;4.82;;;15.00;99.90;;;;;;4806700;29;20137;-67
2022/06/10 05:36:42;;;;;;;8.13;4.20;;;15.10;99.90;;;;;;4800942;29;20054;-68
2022/06/10 05:39:08;;;;;;;8.00;4.78;;;15.00;99.90;;;;;;4802702;29;20061;-66
2022/06/10 05:44:19;;;;;;;10.10;4.53;;;14.90;99.90;;;;;;4784316;29;20042;-66
2022/06/10 05:46:44;;;;;;;12.30;5.53;;;14.80;99.90;;;;;;4783220;29;20063;-67
2022/06/10 05:49:10;;;;;;;10.23;4.68;;;14.80;99.90;;;;;;4805152;29;20062;-66
2022/06/10 05:51:36;;;;;;;11.10;4.32;;;14.80;99.90;;;;;;4779908;29;20392;-67
2022/06/10 05:54:03;;;;;;;9.38;4.43;;;14.80;99.90;;;;;;4803398;29;20049;-65
2022/06/10 05:56:30;;;;;;;8.73;4.05;;;14.70;99.90;;;;;;4786440;29;20098;-67
2022/06/10 05:58:56;;;;;;;6.43;3.50;;;14.70;99.90;;;;;;4804857;29;20485;-66
2022/06/10 06:01:22;;;;;;;10.35;4.30;;;14.70;99.90;;;;;;4790285;29;20091;-67
2022/06/10 06:03:48;;;;;;;8.32;4.45;;;14.70;99.90;;;;;;4775799;29;20090;-66
2022/06/10 06:06:14;;;;;;;12.57;3.72;;;14.70;99.90;;;;;;4786263;29;20461;-67
2022/06/10 06:08:40;;;;;;;8.05;4.28;;;;;;;;;;4807592;29;20050;-68
2022/06/10 06:11:06;;;;;;;11.02;4.28;;;14.80;99.90;;;;;;4805681;29;20074;-67
2022/06/10 06:13:31;;;;;;;8.15;3.83;;;14.60;99.90;;;;;;4807979;29;20064;-66
2022/06/10 06:15:58;;;;;;;8.38;3.95;;;14.80;99.90;;;;;;4806793;29;20059;-66
2022/06/10 06:18:24;;;;;;;9.48;3.95;;;14.70;99.90;;;;;;4790488;29;20054;-66
2022/06/10 06:20:49;;;;;;;10.25;3.75;;;14.80;99.90;;;;;;4791021;29;20054;-66
2022/06/10 06:23:15;;;;;;;9.32;4.22;;;15.00;99.90;;;;;;4806935;29;20397;-66
2022/06/10 06:25:41;;;;;;;9.50;4.30;;;15.10;99.90;;;;;;4806308;29;20196;-66
2022/06/10 06:28:07;;;;;;;8.30;4.47;;;15.00;99.90;;;;;;4807054;29;20046;-67
2022/06/10 06:30:36;;;;;;;10.00;4.57;;;15.30;99.90;;;;;;4805961;29;20062;-66
2022/06/10 06:33:05;;;;;;;14.25;5.00;;;15.80;99.90;;;;;;4805199;29;20051;-65
2022/06/10 06:35:35;;;;;;;9.18;4.38;;;15.20;99.90;;;;;;4805064;29;20055;-67
2022/06/10 06:38:02;;;;;;;6.80;4.45;;;15.30;99.90;;;;;;4790583;29;20051;-67
2022/06/10 06:40:28;;;;;;;14.80;5.07;;;15.30;99.90;;;;;;4804468;29;20563;-66
2022/06/10 06:42:54;;;;;;;7.95;4.75;;;15.40;99.90;;;;;;4790478;29;20117;-66
2022/06/10 06:45:20;;;;;;;11.70;4.80;;;15.50;99.90;;;;;;4789842;29;20055;-65
2022/06/10 06:47:46;;;;;;;11.77;4.55;;;15.50;99.90;;;;;;4788533;29;20134;-65
2022/06/10 06:50:15;;;;;;;10.10;4.47;;;16.20;99.90;;;;;;4790557;29;20450;-67
2022/06/10 06:52:42;;;;;;;9.13;4.60;;;15.60;99.90;;;;;;4790182;29;20051;-66
2022/06/10 06:55:07;;;;;;;9.35;5.10;;;15.50;99.90;;;;;;4790463;29;20104;-65
2022/06/10 06:57:33;;;;;;;11.00;5.57;;;15.50;99.90;;;;;;4806394;29;20051;-66
2022/06/10 07:00:05;;;;;;;13.02;5.57;;;15.40;99.90;;;;;;4807088;29;20061;-66
2022/06/10 07:02:32;;;;;;;13.98;5.15;;;15.30;99.90;;;;;;4805212;29;20064;-66
2022/06/10 07:04:58;;;;;;;13.35;5.82;;;15.20;99.90;;;;;;4805981;29;20062;-66
2022/06/10 07:07:24;;;;;;;11.27;5.55;;;15.30;99.90;;;;;;4806359;29;20050;-66
2022/06/10 07:09:50;;;;;;;9.40;5.35;;;15.40;99.90;;;;;;4789998;29;20455;-66
2022/06/10 07:12:16;;;;;;;10.32;5.53;;;15.50;99.90;;;;;;4790043;29;20107;-66
2022/06/10 07:14:41;;;;;;;9.77;5.45;;;15.60;99.90;;;;;;4806564;29;20058;-67
2022/06/10 07:17:07;;;;;;;11.10;4.97;;;15.60;99.90;;;;;;4805549;29;20051;-65
2022/06/10 07:19:33;;;;;;;10.18;5.45;;;15.80;99.90;;;;;;4806146;29;20058;-65
2022/06/10 07:21:59;;;;;;;8.90;5.22;;;15.70;99.90;;;;;;4806265;29;20515;-66
2022/06/10 07:24:25;;;;;;;10.13;5.75;;;17.10;99.90;;;;;;4806002;29;20046;-65
2022/06/10 07:26:51;;;;;;;10.25;5.60;;;16.00;99.90;;;;;;4806301;29;20046;-66
2022/06/10 07:29:18;;;;;;;10.52;5.78;;;15.70;99.90;;;;;;4775192;29;20184;-66
2022/06/10 07:31:44;;;;;;;11.35;5.38;;;16.10;99.90;;;;;;4805294;29;20054;-66
2022/06/10 07:34:10;;;;;;;7.55;4.97;;;16.20;99.90;;;;;;4790248;29;20051;-66
2022/06/10 07:36:37;;;;;;;12.10;5.22;;;16.20;99.90;;;;;;4806077;29;20055;-67
2022/06/10 07:39:03;;;;;;;11.32;5.70;;;16.50;99.90;;;;;;4789424;29;20134;-67
2022/06/10 07:44:13;;;;;;;9.57;5.00;;;16.40;99.90;;;;;;4803436;29;20484;-65
2022/06/10 07:46:39;;;;;;;9.80;4.95;;;16.80;99.90;;;;;;4804719;29;20046;-66
2022/06/10 07:49:05;;;;;;;10.15;4.60;;;16.90;99.90;;;;;;4789594;29;20472;-66
2022/06/10 07:51:31;;;;;;;9.55;4.90;;;17.00;99.90;;;;;;4790169;29;20123;-65
2022/06/10 07:53:56;;;;;;;9.75;5.20;;;17.00;99.90;;;;;;4805626;29;20063;-66
2022/06/10 07:56:22;;;;;;;9.13;4.40;;;17.00;99.90;;;;;;4789256;29;20059;-67
2022/06/10 07:58:49;;;;;;;10.20;4.15;;;17.10;99.90;;;;;;4805970;29;20061;-66
2022/06/10 08:01:16;;;;;;;18.10;4.63;;;17.00;99.90;;;;;;4805349;29;20066;-65
2022/06/10 08:03:41;;;;;;;10.18;4.85;;;17.00;99.90;;;;;;4789761;29;20046;-66
2022/06/10 08:06:07;;;;;;;10.68;4.78;;;17.00;99.90;;;;;;4805109;29;20051;-66
2022/06/10 08:08:33;;;;;;;10.07;4.30;;;17.20;99.90;;;;;;4805041;29;20114;-66
2022/06/10 08:10:58;;;;;;;8.27;4.57;;;17.10;99.90;;;;;;4805100;29;20062;-65
2022/06/10 08:13:25;;;;;;;9.40;4.88;;;17.00;99.90;;;;;;4804466;29;20103;-67
2022/06/10 08:15:50;;;;;;;8.52;4.60;;;17.20;99.90;;;;;;4802773;29;20069;-67
2022/06/10 08:18:20;;;;;;;9.18;4.28;;;17.30;99.90;;;;;;4784691;29;20476;-65
2022/06/10 08:23:32;;;;;;;6.63;4.00;;;17.40;99.90;;;;;;4804342;29;20137;-68
2022/06/10 08:26:03;;;;;;;11.55;3.80;;;17.40;99.90;;;;;;4804423;29;20084;-66
2022/06/10 08:28:28;;;;;;;12.85;4.30;;;17.90;99.90;;;;;;4804293;29;20059;-67
2022/06/10 08:30:55;;;;;;;10.30;4.00;;;17.40;99.90;;;;;;4789005;29;20196;-66
2022/06/10 08:33:21;;;;;;;7.78;4.07;;;17.40;99.90;;;;;;4804813;29;20073;-66
2022/06/10 08:35:47;;;;;;;10.35;4.38;;;17.40;99.90;;;;;;4802913;29;20154;-67
2022/06/10 08:38:15;;;;;;;11.35;3.92;;;17.10;99.90;;;;;;4804242;29;20129;-66
2022/06/10 08:40:56;;;;;;;10.02;4.22;;;17.40;99.90;;;;;;4800898;29;20063;-68
2022/06/10 08:43:30;;;;;;;10.13;4.43;;;17.70;99.90;;;;;;4805090;29;20133;-65
2022/06/10 08:46:34;;;;;;;8.60;4.22;;;17.60;99.90;;;;;;4804144;29;20047;-65
2022/06/10 08:53:20;;;;;;;6.75;3.13;;;18.50;99.90;;;;;;4787152;30;20157;-66
2022/06/10 09:11:59;;;;;;;5.82;3.47;;;18.90;99.90;;;;;;4789669;30;20066;-66
2022/06/10 09:19:04;;;;;;;6.82;3.20;;;18.40;99.90;;;;;;4806063;29;20077;-66
2022/06/10 09:22:00;;;;;;;5.30;3.20;;;18.60;99.90;;;;;;4777088;29;20058;-66
2022/06/10 09:29:24;;;;;;;7.40;3.92;;;18.90;99.90;;;;;;4790129;30;20404;-67
2022/06/10 09:36:09;;;;;;;7.80;4.07;;;18.70;99.90;;;;;;4790096;30;20550;-66
2022/06/10 09:39:01;;;;;;;11.57;4.43;;;18.10;99.90;;;;;;4794479;29;20132;-65
2022/06/10 09:41:48;;;;;;;7.68;4.32;;;18.10;99.90;;;;;;4790929;29;20066;-64
2022/06/10 09:44:45;;;;;;;6.00;3.42;;;18.10;99.90;;;;;;4791980;29;20080;-66
2022/06/10 09:51:58;;;;;;;7.93;3.38;;;18.30;99.90;;;;;;4807246;29;20133;-66
2022/06/10 09:54:49;;;;;;;6.90;3.30;;;17.90;99.90;;;;;;4805234;29;20054;-64
2022/06/10 09:57:23;;;;;;;7.72;3.65;;;17.90;99.90;;;;;;4805809;29;20057;-65
2022/06/10 10:00:24;;;;;;;6.45;3.53;;;17.90;99.90;;;;;;4791426;29;20462;-65
2022/06/10 10:03:12;;;;;;;13.25;3.67;;;18.00;99.90;;;;;;4773031;30;20079;-67
2022/06/10 10:05:50;;;;;;;10.20;3.50;;;18.20;99.90;;;;;;4791169;29;21787;-66
2022/06/10 10:08:21;;;;;;;10.32;3.72;;;18.40;99.90;;;;;;4805217;29;20057;-66
2022/06/10 10:11:14;;;;;;;8.23;3.28;;;18.50;99.90;;;;;;4806494;29;20051;-67
2022/06/10 10:17:26;;;;;;;8.77;2.97;;;19.60;99.90;;;;;;4806294;29;20137;-67
2022/06/10 10:20:02;;;;;;;6.30;2.97;;;19.60;99.90;;;;;;4806540;29;20129;-66
2022/06/10 10:22:42;;;;;;;6.90;3.47;;;19.80;99.90;;;;;;4806671;29;20492;-67
2022/06/10 10:25:20;;;;;;;9.27;3.50;;;19.90;99.90;;;;;;4805911;29;20051;-68
2022/06/10 10:28:19;;;;;;;5.15;3.17;;;19.90;99.90;;;;;;4802897;29;20118;-65
2022/06/10 10:30:55;;;;;;;6.25;2.90;;;19.80;99.90;;;;;;4804857;29;20423;-67
2022/06/10 10:33:21;;;;;;;8.43;2.92;;;20.30;99.90;;;;;;4804365;29;20500;-65
2022/06/10 10:35:52;;;;;;;8.82;2.85;;;19.80;99.90;;;;;;4807048;29;20059;-66
2022/06/10 10:39:11;;;;;;;7.07;3.30;;;20.20;99.90;;;;;;4805895;29;20465;-67
2022/06/10 10:41:43;;;;;;;8.68;3.00;;;20.60;99.90;;;;;;4805874;29;20070;-66
2022/06/10 10:47:26;;;;;;;7.50;2.67;;;22.20;99.90;;;;;;4803128;29;20047;-66
2022/06/10 10:50:23;;;;;;;10.25;2.97;;;20.90;99.90;;;;;;4805954;29;20540;-66
2022/06/10 10:53:26;;;;;;;6.07;2.53;;;21.00;99.90;;;;;;4804099;29;20477;-66
2022/06/10 10:56:43;;;;;;;6.28;2.80;;;21.00;99.90;;;;;;4805076;29;20371;-67
2022/06/10 10:59:37;;;;;;;7.60;2.50;;;21.30;99.90;;;;;;4804875;29;20084;-65
2022/06/10 11:02:25;;;;;;;6.40;2.65;;;21.00;99.90;;;;;;4791013;29;20077;-65
2022/06/10 11:04:51;;;;;;;8.20;2.75;;;21.00;99.90;;;;;;4788128;29;20059;-67
2022/06/10 11:07:21;;;;;;;8.48;2.90;;;20.70;99.90;;;;;;4805942;29;20042;-66
2022/06/10 11:09:50;;;;;;;6.55;3.00;;;20.80;99.90;;;;;;4806097;29;20437;-66
2022/06/10 11:12:24;;;;;;;6.47;2.63;;;20.70;99.90;;;;;;4806340;29;20093;-66
2022/06/10 11:14:59;;;;;;;5.70;2.70;;;20.90;99.90;;;;;;4806516;29;20093;-67
2022/06/10 11:17:25;;;;;;;8.40;2.75;;;20.70;99.90;;;;;;4805710;29;20443;-66
2022/06/10 11:20:22;;;;;;;8.25;3.03;;;20.90;99.90;;;;;;4804549;29;20055;-66
2022/06/10 11:22:47;;;;;;;7.30;2.67;;;20.90;99.90;;;;;;4789975;29;20462;-65
2022/06/10 11:25:16;;;;;;;6.93;2.80;;;20.90;99.90;;;;;;4805085;29;20142;-66
2022/06/10 11:27:58;;;;;;;9.13;2.83;;;20.90;99.90;;;;;;4805644;29;20062;-65
2022/06/10 11:30:34;;;;;;;5.75;2.92;;;21.40;99.90;;;;;;4789680;29;20131;-66
2022/06/10 11:33:06;;;;;;;6.82;3.58;;;21.40;99.90;;;;;;4805541;29;20509;-65
2022/06/10 11:35:33;;;;;;;;;;;21.60;99.90;;;;;;4790293;29;20069;-66
2022/06/10 11:38:01;;;;;;;8.35;3.60;;;22.00;99.90;;;;;;4789845;29;19926;-65
2022/06/10 11:40:35;;;;;;;9.85;4.22;;;21.90;99.90;;;;;;4804102;29;20124;-65
2022/06/10 11:43:06;;;;;;;8.27;3.30;;;21.80;99.90;;;;;;4805969;29;20055;-66
2022/06/10 11:45:41;;;;;;;6.25;2.80;;;21.70;99.90;;;;;;4789886;29;20315;-66
2022/06/10 11:48:30;;;;;;;6.60;3.05;;;21.70;99.90;;;;;;4804439;29;20452;-65
2022/06/10 11:55:26;;;;;;;4.90;2.40;;;21.60;99.90;;;;;;4800579;29;20037;-66
2022/06/10 12:00:55;;;;;;;7.65;2.72;;;21.00;99.90;;;;;;4788474;29;20058;-66
2022/06/10 12:07:26;;;;;;;6.45;3.22;;;21.40;99.90;;;;;;4805395;29;20030;-67
2022/06/10 12:09:56;;;;;;;7.25;3.10;;;21.40;99.90;;;;;;4805000;29;20054;-67
2022/06/10 12:12:45;;;;;;;7.15;2.85;;;21.40;99.90;;;;;;4802190;29;20069;-65
2022/06/10 12:19:13;;;;;;;9.45;3.00;;;21.20;99.90;;;;;;4733256;29;20138;-65
2022/06/10 12:21:40;;;;;;;7.43;2.63;;;21.30;99.90;;;;;;4805728;29;20051;-66
2022/06/10 12:24:17;;;;;;;6.70;2.70;;;22.00;99.90;;;;;;4805388;29;20137;-66
2022/06/10 12:26:53;;;;;;;6.55;2.80;;;21.50;99.90;;;;;;4804707;29;20061;-67
2022/06/10 12:29:28;;;;;;;5.43;2.53;;;21.60;99.90;;;;;;4805409;29;20051;-66
2022/06/10 12:32:18;;;;;;;5.97;2.10;;;21.40;99.90;;;;;;4773988;29;20066;-67
2022/06/10 12:34:58;;;;;;;6.70;2.60;;;21.70;99.90;;;;;;4808304;29;20115;-68
2022/06/10 12:37:43;;;;;;;8.55;2.55;;;21.80;99.90;;;;;;4809089;29;20043;-67
2022/06/10 12:40:26;;;;;;;7.60;2.30;;;21.90;99.90;;;;;;4801771;29;20054;-67
2022/06/10 12:46:29;;;;;;;6.22;2.25;;;22.00;99.90;;;;;;4792091;29;20059;-66
2022/06/10 12:48:55;;;;;;;6.70;2.45;;;21.90;99.90;;;;;;4792575;29;20054;-67
2022/06/10 12:52:12;;;;;;;5.82;2.60;;;21.70;99.90;;;;;;4808876;29;20051;-67
2022/06/10 12:54:43;;;;;;;7.95;2.50;;;21.90;99.90;;;;;;4777557;29;20039;-67
2022/06/10 12:57:35;;;;;;;4.50;1.98;;;21.80;99.90;;;;;;4808261;29;20047;-66
2022/06/10 13:00:59;;;;;;;7.75;2.17;;;22.20;99.90;;;;;;4790352;29;20050;-66
2022/06/10 13:03:37;;;;;;;5.82;2.28;;;22.50;99.90;;;;;;4756875;29;20036;-67
2022/06/10 13:06:30;;;;;;;4.95;2.50;;;22.30;99.90;;;;;;4776162;29;20054;-66
2022/06/10 13:09:21;;;;;;;8.73;2.20;;;22.80;99.90;;;;;;4776178;29;20047;-67
2022/06/10 13:11:49;;;;;;;5.15;2.30;;;22.50;99.90;;;;;;4791371;29;20126;-68
2022/06/10 13:14:34;;;;;;;5.10;2.20;;;23.60;99.90;;;;;;4791823;29;20117;-66
2022/06/10 13:17:00;;;;;;;6.65;2.38;;;22.40;99.90;;;;;;4805217;29;20039;-65
2022/06/10 13:19:51;;;;;;;5.78;2.95;;;22.30;99.90;;;;;;4791437;29;20107;-66
2022/06/10 13:22:20;;;;;;;4.40;2.50;;;22.20;99.90;;;;;;4791484;29;20055;-66
2022/06/10 13:25:11;;;;;;;6.13;2.40;;;22.60;99.90;;;;;;4792183;29;20119;-67
2022/06/10 13:28:11;;;;;;;6.38;2.60;;;22.60;99.90;;;;;;4791995;29;20057;-67
2022/06/10 13:30:37;;;;;;;5.13;2.60;;;22.80;99.90;;;;;;4791152;29;20063;-66
2022/06/10 13:33:44;;;;;;;5.60;2.60;;;22.60;99.90;;;;;;4807197;29;20057;-66
2022/06/10 13:36:48;;;;;;;8.32;2.72;;;23.20;99.90;;;;;;4753125;29;20054;-65
2022/06/10 13:39:25;;;;;;;4.88;2.92;;;23.60;99.90;;;;;;4808085;29;20388;-65
2022/06/10 13:41:53;;;;;;;6.60;2.78;;;22.70;99.90;;;;;;4807766;29;20673;-65
2022/06/10 13:44:26;;;;;;;7.25;2.78;;;22.70;99.90;;;;;;4791095;29;20047;-67
2022/06/10 13:46:53;;;;;;;5.65;2.33;;;23.40;99.90;;;;;;4807666;29;20050;-66
2022/06/10 13:49:51;;;;;;;6.55;3.17;;;23.40;99.90;;;;;;4807891;29;20065;-66
2022/06/10 13:52:25;;;;;;;7.55;3.03;;;23.50;99.90;;;;;;4791047;29;20096;-66
2022/06/10 13:54:50;;;;;;;7.82;3.55;;;23.70;99.90;;;;;;4808472;29;20047;-66
2022/06/10 13:57:25;;;;;;;10.43;3.20;;;23.40;99.90;;;;;;4791094;29;20512;-66
2022/06/10 14:00:22;;;;;;;5.28;2.67;;;23.80;99.90;;;;;;4808402;29;20054;-67
2022/06/10 14:02:49;;;;;;;8.30;3.17;;;23.30;99.90;;;;;;4806197;29;20420;-66
2022/06/10 14:06:03;;;;;;;;;;;;;;;;;;;;;
2022/06/10 14:09:13;;;;;;;5.78;2.38;;;24.20;99.90;;;;;;4787500;29;20051;-66
2022/06/10 14:11:44;;;;;;;5.95;2.65;;;23.10;99.90;;;;;;4781382;29;20094;-67
2022/06/10 14:14:09;;;;;;;6.20;2.60;;;23.00;99.90;;;;;;4804911;29;20059;-66
2022/06/10 14:16:35;;;;;;;3.10;2.13;;;22.60;99.90;;;;;;4806900;29;20062;-66
2022/06/10 14:19:06;;;;;;;4.63;2.63;;;22.70;99.90;;;;;;4807819;29;20095;-67
2022/06/10 14:21:35;;;;;;;7.15;2.25;;;22.80;99.90;;;;;;4806358;29;20050;-67
2022/06/10 14:24:26;;;;;;;4.00;2.28;;;22.50;99.90;;;;;;4807085;29;20070;-67
2022/06/10 14:27:03;;;;;;;5.47;2.40;;;22.60;99.90;;;;;;4807293;29;20058;-67
2022/06/10 14:29:44;;;;;;;3.85;2.63;;;22.50;99.90;;;;;;4804257;29;20422;-66
2022/06/10 14:32:32;;;;;;;5.43;2.38;;;23.50;99.90;;;;;;4804135;29;20059;-66
2022/06/10 14:35:00;;;;;;;4.32;2.83;;;22.80;99.90;;;;;;4789384;29;20492;-66
2022/06/10 14:37:33;;;;;;;6.28;2.33;;;22.30;99.90;;;;;;4804042;29;20138;-66
2022/06/10 14:40:22;;;;;;;4.03;2.10;;;22.30;99.90;;;;;;4789453;29;20508;-66
2022/06/10 14:43:12;;;;;;;5.18;2.50;;;22.50;99.90;;;;;;4803648;29;20477;-66
2022/06/10 14:45:41;;;;;;;2.85;2.60;;;21.80;99.90;;;;;;4803529;29;20115;-66